Airfield :
LOGIN :

Register | Disclaimer

   EN    FR    IT 

 










Legend :    VFR   Marginal VFR   IFR   Intensive IFR   Very Intensive IFR
Visi :
Ceiling :
>= 8 km
>= 3000ft
5 to 8 km
1000 to 3000 ft
1500m to 5 km
500 to 1000 ft
800 to 1500m
200 to 500 ft
< 800m
< 200 ft
Symbols :   Thunderstorms  Fog  Heavy snow  Heavy precipitations  Wind > 20 kt
SIGMETs :     Misc.  Thunderstorms  Icing  Turbulence  Mountain Waves  Volcanic Ashes







- Airport Elevation : 359 ft
- IATA code : BVA
- Download approach charts


LFOB - Beauvais

CURRENT METAR :
  • 181800Z AUTO 11005KT CAVOK M01/M02 Q1017 NOSIG

EXPIRED METARs :
  • 181730Z AUTO 11006KT CAVOK M01/M02 Q1017 NOSIG
  • 181700Z AUTO 11006KT CAVOK M00/M02 Q1017 NOSIG
  • 181630Z AUTO 11005KT CAVOK 01/M01 Q1017 NOSIG
  • 181600Z AUTO 12005KT 9999 FEW029 02/M01 Q1017 NOSIG
  • 181530Z AUTO 12007KT 9999 FEW022 03/M01 Q1017 NOSIG
  • 181500Z AUTO 13007KT 9999 FEW022 04/M00 Q1017 NOSIG

TAF TAF LFOB
Valid from the 18 at 18:00 until the 19 at 18:00 UTC


181700Z 1818/1918 16008KT CAVOK
PROB30 1822/1903 BKN004
BECMG 1908/1911 BKN008 OVC012
TEMPO 1908/1915 2000 -SN
PROB30
TEMPO 1908/1911 FZRA
TEMPO 1915/1918 1500 SNRA OVC002
ATIS : +33 3 44 11 49 28
No reported NOTAMs for that airfield.



MET'MAP, your aeronautical weather chart ! - Copyright ORBIFLY December 2007 - Disclaimer

ORBIFLY MET'MAP TEAM :

Programming & Development : Alexandra Zaïnal
Concept & Development : Baudouin d'Aumeries
Co-Development & Prog : Marc-Olivier Méhu
Technical & hardware support : Manuel Goepfert

Contact : metmap@orbifly.com




SOURCES & CREDITS :

   NOAA